Time;durP1;ratioP1;P1;durP2;ratioP2;P2;SDS_P1;SDS_P2;PMS_P1;PMS_P2;Temp;Humidity;BMP_temperature;BMP_pressure;BME280_temperature;BME280_humidity;BME280_pressure;Samples;Min_cycle;Max_cycle;Signal;HPM_P1;HPM_P2
2021/08/07 00:00:09;;;;;;;0.10;0.10;;;;;;;14.52;100.00;99857.88;5070359;28;20053;-86
2021/08/07 00:02:42;;;;;;;0.10;0.10;;;;;;;14.38;100.00;99852.59;5071533;28;20044;-86
2021/08/07 00:05:11;;;;;;;0.47;0.20;;;;;;;14.36;100.00;99863.88;5069951;28;20052;-86
2021/08/07 00:08:09;;;;;;;0.10;0.10;;;;;;;14.36;100.00;99863.03;5057114;28;20497;-87
2021/08/07 00:10:44;;;;;;;0.10;0.10;;;;;;;14.26;100.00;99858.72;5065557;28;20063;-86
2021/08/07 00:13:21;;;;;;;0.10;0.10;;;;;;;14.15;100.00;99866.44;5070112;28;20057;-86
2021/08/07 00:15:54;;;;;;;;;;;;;;;14.36;100.00;99863.03;5066154;28;20052;-86
2021/08/07 00:18:34;;;;;;;0.10;0.10;;;;;;;14.10;100.00;99856.50;5065587;28;19920;-87
2021/08/07 00:21:07;;;;;;;0.20;0.20;;;;;;;14.11;100.00;99855.38;5070347;28;20413;-85
2021/08/07 00:24:30;;;;;;;0.20;0.20;;;;;;;14.17;100.00;99868.88;5069425;28;20112;-86
2021/08/07 00:26:59;;;;;;;0.20;0.20;;;;;;;14.05;100.00;99864.84;5059768;28;20103;-87
2021/08/07 00:29:35;;;;;;;0.20;0.20;;;;;;;14.12;100.00;99858.91;5069612;28;20059;-86
2021/08/07 00:32:08;;;;;;;0.20;0.20;;;;;;;14.14;100.00;99866.78;5055999;28;20052;-87
2021/08/07 00:34:38;;;;;;;0.13;0.13;;;;;;;14.02;100.00;99870.19;5069891;28;20531;-86
2021/08/07 00:37:12;;;;;;;0.20;0.20;;;;;;;13.90;100.00;99865.34;5069381;28;20045;-86
2021/08/07 00:39:57;;;;;;;0.20;0.20;;;;;;;13.90;100.00;99857.94;5070026;28;20512;-86
2021/08/07 00:42:27;;;;;;;0.35;0.10;;;;;;;13.80;100.00;99855.53;5068453;28;20045;-86
2021/08/07 00:45:03;;;;;;;0.20;0.20;;;;;;;13.78;100.00;99855.03;5079699;28;20408;-86
2021/08/07 00:47:41;;;;;;;0.20;0.20;;;;;;;13.74;100.00;99851.34;5057489;28;20053;-85
2021/08/07 00:50:12;;;;;;;0.10;0.10;;;;;;;13.73;100.00;99850.56;5060975;28;20298;-86
2021/08/07 00:52:52;;;;;;;0.10;0.10;;;;;;;13.68;100.00;99852.63;5068765;28;20055;-87
2021/08/07 00:55:29;;;;;;;0.20;0.20;;;;;;;13.68;100.00;99864.38;5070810;28;20055;-86
2021/08/07 00:58:00;;;;;;;0.20;0.20;;;;;;;13.69;100.00;99867.94;5068529;28;20048;-86
2021/08/07 01:00:34;;;;;;;0.10;0.10;;;;;;;13.66;100.00;99860.34;5072482;28;20800;-86
2021/08/07 01:03:10;;;;;;;0.10;0.10;;;;;;;13.60;100.00;99856.97;5071817;28;20431;-86
2021/08/07 01:06:19;;;;;;;0.10;0.10;;;;;;;13.65;100.00;99862.28;5071378;28;20067;-87
2021/08/07 01:09:07;;;;;;;0.20;0.20;;;;;;;13.61;100.00;99856.66;5072991;28;20048;-86
2021/08/07 01:11:49;;;;;;;0.10;0.10;;;;;;;13.57;100.00;99850.22;5071960;28;20075;-86
2021/08/07 01:14:32;;;;;;;0.20;0.20;;;;;;;13.58;100.00;99861.97;5072245;28;20055;-86
2021/08/07 01:17:12;;;;;;;0.10;0.10;;;;;;;13.56;100.00;99845.06;5067347;28;20052;-87
2021/08/07 01:19:54;;;;;;;0.60;0.20;;;;;;;13.48;100.00;99845.84;5068670;28;20051;-86
2021/08/07 01:22:32;;;;;;;0.15;0.15;;;;;;;13.48;100.00;99843.13;5071552;28;20048;-86
2021/08/07 01:25:11;;;;;;;0.10;0.10;;;;;;;13.57;100.00;99854.88;5072826;28;20052;-86
2021/08/07 01:27:51;;;;;;;0.20;0.20;;;;;;;13.48;100.00;99849.41;5067379;28;20044;-87
2021/08/07 01:30:26;;;;;;;0.15;0.15;;;;;;;13.48;100.00;99849.41;5072244;28;20049;-86
2021/08/07 01:33:00;;;;;;;0.20;0.20;;;;;;;13.44;100.00;99842.97;5072196;28;20055;-86
2021/08/07 01:35:36;;;;;;;0.10;0.10;;;;;;;13.48;100.00;99840.38;5072192;28;20087;-86
2021/08/07 01:38:10;;;;;;;0.10;0.10;;;;;;;13.46;100.00;99848.91;5072306;28;20048;-87
2021/08/07 01:40:51;;;;;;;0.20;0.20;;;;;;;13.48;100.00;99862.25;5071925;28;20063;-86
2021/08/07 01:43:28;;;;;;;0.10;0.10;;;;;;;13.49;100.00;99852.94;5071437;28;20040;-87
2021/08/07 01:46:06;;;;;;;0.10;0.10;;;;;;;13.36;100.00;99843.78;5072074;28;20056;-87
2021/08/07 01:48:52;;;;;;;0.10;0.10;;;;;;;13.40;100.00;99858.41;5072511;28;20040;-86
2021/08/07 01:51:43;;;;;;;0.20;0.20;;;;;;;13.32;100.00;99854.50;5072375;28;20055;-86
2021/08/07 01:54:16;;;;;;;0.13;0.13;;;;;;;13.36;100.00;99855.50;5072381;28;20048;-87
2021/08/07 01:56:46;;;;;;;0.10;0.10;;;;;;;13.35;100.00;99859.34;5068717;28;20538;-86
2021/08/07 01:59:22;;;;;;;0.10;0.10;;;;;;;13.28;100.00;99853.50;5071976;28;20063;-86
2021/08/07 02:01:59;;;;;;;0.20;0.20;;;;;;;13.30;100.00;99858.66;5069543;28;20052;-87
2021/08/07 02:04:49;;;;;;;0.17;0.17;;;;;;;13.23;100.00;99868.16;5070847;28;20052;-85
2021/08/07 02:07:28;;;;;;;0.20;0.20;;;;;;;13.18;100.00;99851.09;5071815;28;20401;-86
2021/08/07 02:10:07;;;;;;;0.10;0.10;;;;;;;13.23;100.00;99862.69;5071866;28;20519;-86
2021/08/07 02:12:39;;;;;;;0.20;0.20;;;;;;;13.21;100.00;99867.63;5071383;28;20052;-87
2021/08/07 02:15:22;;;;;;;0.10;0.10;;;;;;;13.18;100.00;99856.56;5072054;28;20040;-86
2021/08/07 02:18:03;;;;;;;0.20;0.20;;;;;;;13.16;100.00;99850.59;5073462;28;20040;-87
2021/08/07 02:20:39;;;;;;;0.20;0.20;;;;;;;13.18;100.00;99845.63;5070721;28;20045;-86
2021/08/07 02:23:33;;;;;;;0.10;0.10;;;;;;;13.16;100.00;99847.84;5071441;28;20055;-87
2021/08/07 02:26:11;;;;;;;0.10;0.10;;;;;;;13.14;100.00;99839.19;5058889;28;20055;-87
2021/08/07 02:28:51;;;;;;;0.10;0.10;;;;;;;13.13;100.00;99835.63;5067524;28;20052;-87
2021/08/07 02:31:27;;;;;;;0.22;0.20;;;;;;;13.08;100.00;99846.72;5069155;28;20049;-86
2021/08/07 02:34:01;;;;;;;0.10;0.10;;;;;;;13.09;100.00;99840.94;5065309;28;20045;-86
2021/08/07 02:37:03;;;;;;;0.20;0.20;;;;;;;13.09;100.00;99843.69;5071575;28;20053;-86
2021/08/07 02:39:35;;;;;;;0.10;0.10;;;;;;;13.03;100.00;99842.19;5062316;28;20546;-87
2021/08/07 02:42:06;;;;;;;0.10;0.10;;;;;;;13.03;100.00;99849.59;5067604;28;20057;-87
2021/08/07 02:44:45;;;;;;;0.20;0.20;;;;;;;12.99;100.00;99849.41;5069097;28;20045;-87
2021/08/07 02:47:26;;;;;;;0.10;0.10;;;;;;;13.05;100.00;99841.88;5058012;28;20647;-86
2021/08/07 02:50:05;;;;;;;0.10;0.10;;;;;;;12.97;100.00;99846.22;5054447;28;20047;-86
2021/08/07 02:52:39;;;;;;;0.10;0.10;;;;;;;13.03;100.00;99846.88;5065977;28;20060;-87
2021/08/07 02:55:16;;;;;;;0.20;0.20;;;;;;;13.00;100.00;99845.56;5053141;28;20060;-86
2021/08/07 03:01:37;;;;;;;0.20;0.20;;;;;;;12.99;100.00;99841.22;5061641;28;20056;-87
2021/08/07 03:04:12;;;;;;;0.10;0.10;;;;;;;12.95;100.00;99840.25;5070982;28;20044;-87
2021/08/07 03:06:41;;;;;;;0.13;0.13;;;;;;;12.98;100.00;99836.91;5071269;28;20041;-87
2021/08/07 03:09:20;;;;;;;0.10;0.10;;;;;;;12.91;100.00;99828.34;5071029;28;20053;-87
2021/08/07 03:11:52;;;;;;;0.10;0.10;;;;;;;12.88;100.00;99832.50;5072139;28;20381;-87
2021/08/07 03:14:25;;;;;;;0.10;0.10;;;;;;;12.94;100.00;99844.13;5070293;28;20064;-87
2021/08/07 03:16:59;;;;;;;0.20;0.20;;;;;;;12.85;100.00;99826.88;5070153;28;20555;-86
2021/08/07 03:19:35;;;;;;;0.20;0.20;;;;;;;12.88;100.00;99837.19;5070390;28;20044;-86
2021/08/07 03:22:04;;;;;;;0.20;0.20;;;;;;;12.90;100.00;99840.41;5070871;28;20052;-87
2021/08/07 03:24:39;;;;;;;0.10;0.10;;;;;;;12.89;100.00;99836.06;5071016;28;20401;-87
2021/08/07 03:27:15;;;;;;;0.10;0.10;;;;;;;12.87;100.00;99839.13;5070709;28;20390;-87
2021/08/07 03:29:55;;;;;;;0.20;0.20;;;;;;;12.89;100.00;99839.59;5068948;28;20051;-87
2021/08/07 03:32:26;;;;;;;0.10;0.10;;;;;;;12.84;100.00;99831.56;5069720;28;20048;-86
2021/08/07 03:35:26;;;;;;;0.10;0.10;;;;;;;12.84;100.00;99847.94;5070124;28;20049;-86
2021/08/07 03:38:00;;;;;;;0.15;0.15;;;;;;;12.95;100.00;99853.09;5051047;28;20060;-86
2021/08/07 03:40:34;;;;;;;0.20;0.20;;;;;;;12.88;100.00;99845.38;5070194;28;20066;-87
2021/08/07 03:43:16;;;;;;;0.10;0.10;;;;;;;12.83;100.00;99837.31;5071595;28;20032;-86
2021/08/07 03:46:11;;;;;;;0.10;0.10;;;;;;;12.84;100.00;99841.66;5064343;28;20485;-87
2021/08/07 03:48:44;;;;;;;0.20;0.20;;;;;;;12.84;100.00;99844.38;5067235;28;20041;-86
2021/08/07 03:51:19;;;;;;;0.20;0.20;;;;;;;12.90;100.00;99849.41;5071051;28;20051;-85
2021/08/07 03:53:53;;;;;;;0.65;0.17;;;;;;;12.91;100.00;99845.56;5056944;28;20049;-86
2021/08/07 03:56:31;;;;;;;0.10;0.10;;;;;;;12.85;100.00;99837.81;5054384;28;20048;-87
2021/08/07 03:59:04;;;;;;;0.20;0.13;;;;;;;12.88;100.00;99842.63;5070405;28;20041;-87
2021/08/07 04:01:39;;;;;;;0.10;0.10;;;;;;;12.85;100.00;99835.09;5070070;28;20532;-86
2021/08/07 04:04:12;;;;;;;0.15;0.15;;;;;;;12.88;100.00;99845.38;5070697;28;20040;-87
2021/08/07 04:06:48;;;;;;;0.20;0.20;;;;;;;12.87;100.00;99832.81;5070896;28;20047;-86
2021/08/07 04:09:26;;;;;;;0.10;0.10;;;;;;;12.92;100.00;99838.94;5070445;28;20412;-87
2021/08/07 04:12:00;;;;;;;0.10;0.10;;;;;;;12.91;100.00;99837.38;5070189;28;20497;-87
2021/08/07 04:14:31;;;;;;;0.28;0.20;;;;;;;12.95;100.00;99836.72;5070575;28;20051;-86
2021/08/07 04:17:00;;;;;;;0.20;0.20;;;;;;;12.95;100.00;99851.16;5070289;28;20397;-86
2021/08/07 04:19:30;;;;;;;0.20;0.20;;;;;;;12.93;100.00;99840.56;5070423;28;20048;-86
2021/08/07 04:22:19;;;;;;;0.20;0.20;;;;;;;12.95;100.00;99840.25;5070003;28;20044;-86
2021/08/07 04:24:53;;;;;;;0.10;0.10;;;;;;;12.96;100.00;99841.88;5070505;28;20049;-86
2021/08/07 04:27:22;;;;;;;0.20;0.20;;;;;;;13.01;100.00;99847.19;5063303;28;20106;-86
2021/08/07 04:29:56;;;;;;;0.13;0.13;;;;;;;13.01;100.00;99851.81;5061887;28;20056;-86
2021/08/07 04:32:33;;;;;;;0.10;0.10;;;;;;;12.98;100.00;99845.09;5059658;28;20048;-86
2021/08/07 04:35:10;;;;;;;0.20;0.20;;;;;;;13.00;100.00;99845.56;5070930;28;20410;-86
2021/08/07 04:37:52;;;;;;;0.20;0.20;;;;;;;13.04;100.00;99843.03;5061581;28;20047;-86
2021/08/07 04:40:31;;;;;;;0.20;0.20;;;;;;;13.10;100.00;99853.50;5074012;28;20041;-87
2021/08/07 04:43:08;;;;;;;0.13;0.13;;;;;;;13.07;100.00;99848.63;5065093;28;20052;-87
2021/08/07 04:45:41;;;;;;;0.20;0.20;;;;;;;13.18;100.00;99853.81;5070939;28;20074;-87
2021/08/07 04:48:16;;;;;;;0.10;0.10;;;;;;;13.21;100.00;99861.38;5069230;28;20075;-86
2021/08/07 04:50:57;;;;;;;0.20;0.20;;;;;;;13.27;100.00;99860.09;5065940;28;20044;-86
2021/08/07 04:53:36;;;;;;;0.20;0.20;;;;;;;13.33;100.00;99856.09;5069027;28;20099;-87
2021/08/07 04:56:11;;;;;;;0.20;0.20;;;;;;;13.39;100.00;99857.59;5063990;28;20041;-86
2021/08/07 04:58:44;;;;;;;0.10;0.10;;;;;;;13.44;100.00;99857.44;5067528;28;20044;-86
2021/08/07 05:01:23;;;;;;;0.20;0.20;;;;;;;13.53;100.00;99857.44;5072775;28;20061;-86
2021/08/07 05:03:57;;;;;;;0.15;0.15;;;;;;;13.63;100.00;99852.78;5072717;28;20060;-87
2021/08/07 05:06:31;;;;;;;0.20;0.20;;;;;;;13.67;100.00;99853.75;5073774;28;20608;-86
2021/08/07 05:09:00;;;;;;;0.20;0.20;;;;;;;13.93;100.00;99838.16;5072403;28;20394;-86
2021/08/07 05:11:33;;;;;;;0.10;0.10;;;;;;;15.23;100.00;99837.25;5058758;28;20052;-87
2021/08/07 05:14:02;;;;;;;0.20;0.20;;;;;;;16.08;92.07;99825.16;5073079;28;20775;-86
2021/08/07 05:16:36;;;;;;;0.20;0.20;;;;;;;17.16;89.68;99836.22;5072932;28;20048;-87
2021/08/07 05:19:09;;;;;;;0.17;0.17;;;;;;;17.99;84.05;99833.97;5069877;28;20047;-87
2021/08/07 05:21:43;;;;;;;0.20;0.20;;;;;;;18.42;82.99;99830.75;5072052;28;20508;-87
2021/08/07 05:24:18;;;;;;;0.20;0.20;;;;;;;18.82;81.19;99838.06;5069130;28;20083;-87
2021/08/07 05:26:48;;;;;;;0.20;0.20;;;;;;;18.60;80.12;99837.53;5072186;28;20044;-87
2021/08/07 05:29:17;;;;;;;0.10;0.10;;;;;;;17.80;83.85;99847.53;5070011;28;20060;-88
2021/08/07 05:31:51;;;;;;;0.20;0.20;;;;;;;18.07;85.42;99856.97;5070666;28;20053;-88
2021/08/07 05:34:19;;;;;;;0.10;0.10;;;;;;;18.52;83.06;99844.03;5072537;28;20057;-87
2021/08/07 05:36:53;;;;;;;0.10;0.10;;;;;;;17.61;85.11;99854.47;5074094;28;20044;-87
2021/08/07 05:39:28;;;;;;;0.10;0.10;;;;;;;17.21;88.99;99854.41;5072372;28;20489;-88
2021/08/07 05:42:02;;;;;;;0.10;0.10;;;;;;;16.72;93.20;99853.22;5065723;28;20604;-88
2021/08/07 05:44:31;;;;;;;0.20;0.20;;;;;;;16.84;93.80;99850.50;5073911;28;20040;-87
2021/08/07 05:46:59;;;;;;;0.10;0.10;;;;;;;16.58;94.56;99848.06;5072082;28;20056;-87
2021/08/07 05:49:32;;;;;;;0.10;0.10;;;;;;;16.65;95.05;99851.06;5072379;28;20408;-87
2021/08/07 05:52:10;;;;;;;0.10;0.10;;;;;;;16.43;96.07;99827.56;5069003;28;20040;-87
2021/08/07 05:54:39;;;;;;;0.10;0.10;;;;;;;16.34;97.07;99846.06;5072557;28;20528;-87
2021/08/07 05:57:13;;;;;;;0.10;0.10;;;;;;;16.36;98.14;99843.78;5067397;28;20045;-87
2021/08/07 05:59:47;;;;;;;0.10;0.10;;;;;;;16.26;98.53;99838.72;5072015;28;20044;-87
2021/08/07 06:02:22;;;;;;;0.10;0.10;;;;;;;16.31;96.21;99835.78;5066280;28;20461;-87
2021/08/07 06:04:55;;;;;;;0.10;0.10;;;;;;;16.38;96.18;99841.50;5061334;28;20064;-87
2021/08/07 06:07:29;;;;;;;0.10;0.10;;;;;;;16.32;96.96;99840.09;5069139;28;20516;-87
2021/08/07 06:10:05;;;;;;;0.10;0.10;;;;;;;16.40;97.09;99844.69;5077436;28;20048;-87
2021/08/07 06:13:01;;;;;;;0.13;0.13;;;;;;;16.37;98.93;99852.84;5067215;28;20413;-87
2021/08/07 06:15:36;;;;;;;0.10;0.10;;;;;;;16.19;98.95;99847.50;5068394;28;20056;-87
2021/08/07 06:18:12;;;;;;;0.20;0.20;;;;;;;16.15;98.18;99850.13;5085070;28;20668;-88
2021/08/07 06:20:46;;;;;;;0.10;0.10;;;;;;;16.20;99.04;99846.38;5066852;28;20037;-87
2021/08/07 06:23:21;;;;;;;0.10;0.10;;;;;;;16.29;98.66;99847.06;5067275;28;20047;-88
2021/08/07 06:26:22;;;;;;;0.10;0.10;;;;;;;16.30;100.00;99847.91;5063010;28;20045;-88
2021/08/07 06:28:55;;;;;;;0.20;0.20;;;;;;;16.23;99.54;99837.47;5055695;28;20523;-90
2021/08/07 06:31:29;;;;;;;0.20;0.20;;;;;;;16.18;99.43;99843.16;5067669;28;20060;-88
2021/08/07 06:33:58;;;;;;;0.10;0.10;;;;;;;16.31;99.91;99852.25;5059379;28;20079;-89
2021/08/07 06:36:26;;;;;;;0.10;0.10;;;;;;;16.45;99.47;99860.97;5061574;28;20052;-88
2021/08/07 06:38:54;;;;;;;0.10;0.10;;;;;;;16.41;99.11;99853.75;5061709;28;20053;-89
2021/08/07 06:41:30;;;;;;;0.10;0.10;;;;;;;16.30;99.96;99847.91;5069813;28;20056;-88
2021/08/07 06:44:19;;;;;;;0.10;0.10;;;;;;;16.29;99.69;99860.78;5067485;28;20416;-89
2021/08/07 06:46:48;;;;;;;0.10;0.10;;;;;;;16.37;99.66;99861.06;5064706;28;20071;-88
2021/08/07 06:49:22;;;;;;;0.10;0.10;;;;;;;16.52;99.27;99862.34;5064987;28;20382;-89
2021/08/07 06:51:52;;;;;;;0.10;0.10;;;;;;;16.62;100.00;99859.97;5063703;28;20079;-88
2021/08/07 06:54:25;;;;;;;0.10;0.10;;;;;;;16.61;97.02;99863.88;5063722;28;20052;-88
2021/08/07 06:57:02;;;;;;;0.10;0.10;;;;;;;16.71;98.65;99867.31;5068125;28;20048;-88
2021/08/07 06:59:38;;;;;;;0.20;0.20;;;;;;;16.74;99.34;99874.88;5066644;28;20044;-88
2021/08/07 07:02:11;;;;;;;0.10;0.10;;;;;;;16.78;99.73;99862.88;5068606;28;20070;-88
2021/08/07 07:04:44;;;;;;;0.17;0.10;;;;;;;16.87;97.77;99861.97;5067158;28;20546;-88
2021/08/07 07:07:21;;;;;;;0.10;0.10;;;;;;;16.94;97.33;99865.75;5057665;28;20060;-88
2021/08/07 07:09:49;;;;;;;0.10;0.10;;;;;;;16.93;98.21;99868.84;5068279;28;20056;-89
2021/08/07 07:12:26;;;;;;;0.15;0.15;;;;;;;16.91;98.14;99874.69;5064602;28;20056;-88
2021/08/07 07:15:02;;;;;;;0.20;0.20;;;;;;;17.00;99.47;99878.13;5066484;28;20067;-88
2021/08/07 07:17:36;;;;;;;0.15;0.15;;;;;;;17.07;98.06;99865.75;5067766;28;20041;-89
2021/08/07 07:20:07;;;;;;;0.10;0.10;;;;;;;17.03;97.59;99875.84;5068923;28;20048;-89
2021/08/07 07:22:41;;;;;;;0.10;0.10;;;;;;;16.99;95.30;99867.50;5067312;28;20047;-89
2021/08/07 07:25:14;;;;;;;0.10;0.10;;;;;;;17.03;95.26;99868.41;5069209;28;20075;-89
2021/08/07 07:27:45;;;;;;;0.10;0.10;;;;;;;17.08;94.76;99872.88;5066286;28;20040;-88
2021/08/07 07:30:19;;;;;;;0.20;0.20;;;;;;;17.11;96.66;99861.19;5083905;28;20052;-89
2021/08/07 07:32:53;;;;;;;0.10;0.10;;;;;;;17.19;96.97;99863.00;5068446;28;20076;-90
2021/08/07 07:35:27;;;;;;;0.10;0.10;;;;;;;17.22;94.18;99859.59;5071988;28;20520;-89
2021/08/07 07:38:03;;;;;;;0.20;0.20;;;;;;;17.25;93.52;99847.06;5069973;28;20041;-89
2021/08/07 07:40:31;;;;;;;0.20;0.20;;;;;;;17.62;97.15;99860.78;5070252;28;20040;-91
2021/08/07 07:43:06;;;;;;;0.20;0.20;;;;;;;17.72;96.05;99857.53;5069980;28;20048;-89
2021/08/07 07:45:40;;;;;;;0.17;0.17;;;;;;;17.96;93.96;99859.44;5074040;28;20049;-89
2021/08/07 07:48:13;;;;;;;0.10;0.10;;;;;;;18.02;94.19;99873.75;5069564;28;20055;-89
2021/08/07 07:50:48;;;;;;;0.10;0.10;;;;;;;17.92;92.56;99880.56;5070173;28;20044;-88
2021/08/07 07:53:22;;;;;;;0.10;0.10;;;;;;;17.96;92.24;99880.66;5065790;28;20049;-89
2021/08/07 07:55:55;;;;;;;0.20;0.20;;;;;;;18.00;90.14;99882.34;5071416;28;20056;-89
2021/08/07 07:58:31;;;;;;;0.10;0.10;;;;;;;17.98;93.38;99867.34;5069653;28;20044;-90
2021/08/07 08:01:05;;;;;;;0.10;0.10;;;;;;;17.91;93.13;99872.63;5070572;28;20055;-91
2021/08/07 08:03:33;;;;;;;0.10;0.10;;;;;;;18.00;92.20;99867.81;5071128;28;20040;-89
2021/08/07 08:06:02;;;;;;;0.10;0.10;;;;;;;18.11;92.35;99866.16;5076118;28;20060;-89
2021/08/07 08:08:35;;;;;;;0.10;0.10;;;;;;;18.23;92.39;99875.50;5068303;28;20082;-88
2021/08/07 08:11:04;;;;;;;0.20;0.20;;;;;;;18.51;92.72;99872.72;5069407;28;20067;-90
2021/08/07 08:13:40;;;;;;;0.20;0.20;;;;;;;18.65;90.55;99867.56;5072660;28;20041;-90
2021/08/07 08:16:14;;;;;;;0.20;0.20;;;;;;;18.63;87.57;99860.81;5084863;28;20048;-88
2021/08/07 08:18:42;;;;;;;0.10;0.10;;;;;;;18.91;90.50;99862.75;5065234;28;20040;-92
2021/08/07 08:21:10;;;;;;;0.10;0.10;;;;;;;19.09;89.47;99866.72;5073584;28;20063;-87
2021/08/07 08:23:39;;;;;;;0.10;0.10;;;;;;;19.17;87.60;99864.94;5061310;28;20048;-91
2021/08/07 08:26:13;;;;;;;0.10;0.10;;;;;;;18.79;85.28;99866.34;5071840;28;20496;-89
2021/08/07 08:28:47;;;;;;;0.10;0.10;;;;;;;18.36;88.79;99879.81;5065777;28;20036;-89
2021/08/07 08:31:21;;;;;;;0.10;0.10;;;;;;;18.14;88.39;99865.44;5073039;28;20040;-89
2021/08/07 08:33:54;;;;;;;0.13;0.13;;;;;;;18.22;85.57;99863.69;5074263;28;20049;-90
2021/08/07 08:36:28;;;;;;;0.10;0.10;;;;;;;18.36;88.12;99869.56;5073040;28;20056;-89
2021/08/07 08:39:01;;;;;;;0.10;0.10;;;;;;;18.66;86.43;99868.41;5065761;28;20048;-89
2021/08/07 08:41:36;;;;;;;0.10;0.10;;;;;;;19.10;87.68;99857.28;5071089;28;20057;-90
2021/08/07 08:44:13;;;;;;;0.20;0.20;;;;;;;19.11;81.33;99856.16;5067609;28;20044;-90
2021/08/07 08:46:47;;;;;;;0.10;0.10;;;;;;;19.19;83.56;99865.38;5066711;28;20055;-88
2021/08/07 08:49:17;;;;;;;0.10;0.10;;;;;;;19.28;83.85;99854.94;5071786;28;20060;-87
2021/08/07 08:51:47;;;;;;;0.10;0.10;;;;;;;19.58;84.64;99867.41;5069019;28;20047;-89
2021/08/07 08:54:21;;;;;;;0.15;0.15;;;;;;;19.83;83.39;99860.50;5064156;28;20048;-89
2021/08/07 08:56:55;;;;;;;0.10;0.10;;;;;;;20.02;84.38;99854.19;5061244;28;20440;-88
2021/08/07 08:59:30;;;;;;;0.10;0.10;;;;;;;19.68;82.07;99866.88;5064617;28;20513;-87
2021/08/07 09:01:59;;;;;;;0.20;0.20;;;;;;;19.57;85.95;99861.09;5064531;28;20052;-89
2021/08/07 09:04:33;;;;;;;0.10;0.10;;;;;;;19.38;82.44;99864.63;5064242;28;20500;-89
2021/08/07 09:07:07;;;;;;;0.10;0.10;;;;;;;19.28;83.97;99854.94;5070968;28;20044;-89
2021/08/07 09:09:40;;;;;;;0.10;0.10;;;;;;;19.28;83.76;99868.75;5069749;28;20048;-90
2021/08/07 09:12:38;;;;;;;0.10;0.10;;;;;;;19.19;84.48;99859.84;5069444;28;20048;-90
2021/08/07 09:15:35;;;;;;;0.10;0.10;;;;;;;19.25;84.31;99857.63;5060354;28;20044;-88
2021/08/07 09:18:31;;;;;;;0.10;0.10;;;;;;;19.60;83.26;99862.34;5049377;28;20053;-89
2021/08/07 09:21:11;;;;;;;;;;;;;;;19.60;78.90;99863.13;5055241;28;20068;-87
2021/08/07 09:23:42;;;;;;;0.10;0.10;;;;;;;19.48;81.94;99858.53;5066220;28;19928;-86
2021/08/07 09:26:21;;;;;;;0.10;0.10;;;;;;;19.19;78.84;99854.34;5047376;28;20064;-86
2021/08/07 09:29:00;;;;;;;0.10;0.10;;;;;;;19.26;81.44;99860.00;5052653;28;20064;-87
2021/08/07 09:31:57;;;;;;;0.20;0.20;;;;;;;19.29;81.26;99862.06;5052739;28;20045;-87
2021/08/07 09:34:33;;;;;;;0.10;0.10;;;;;;;19.24;83.92;99861.53;5051056;28;20055;-88
2021/08/07 09:37:05;;;;;;;0.10;0.10;;;;;;;19.30;84.34;99849.06;5051315;28;20057;-88
2021/08/07 09:39:39;;;;;;;0.45;0.20;;;;;;;19.25;82.91;99835.53;5046507;28;20061;-87
2021/08/07 09:42:28;;;;;;;0.20;0.20;;;;;;;19.34;81.98;99856.25;5049379;28;20049;-87
2021/08/07 09:45:05;;;;;;;0.22;0.10;;;;;;;19.33;82.79;99849.16;5050149;28;20420;-85
2021/08/07 09:47:55;;;;;;;0.13;0.13;;;;;;;19.16;82.22;99846.78;5045577;28;20063;-88
2021/08/07 09:50:27;;;;;;;0.10;0.10;;;;;;;19.06;83.04;99856.41;5049010;28;20056;-87
2021/08/07 09:53:18;;;;;;;0.10;0.10;;;;;;;19.08;83.25;99845.81;5046265;28;20056;-87
2021/08/07 09:56:04;;;;;;;0.10;0.10;;;;;;;18.83;83.14;99845.19;5053022;28;20060;-88
2021/08/07 09:58:42;;;;;;;0.10;0.10;;;;;;;18.65;83.65;99847.50;5047660;28;20056;-88
2021/08/07 10:01:27;;;;;;;0.10;0.10;;;;;;;18.52;83.29;99849.53;5047747;28;20056;-87
2021/08/07 10:04:06;;;;;;;0.10;0.10;;;;;;;18.35;83.09;99847.91;5044870;28;20053;-88
2021/08/07 10:06:42;;;;;;;0.10;0.10;;;;;;;18.63;84.59;99855.31;5052564;28;20053;-88
2021/08/07 10:09:31;;;;;;;0.17;0.17;;;;;;;19.01;82.54;99851.94;5054637;28;20056;-91
2021/08/07 10:12:11;;;;;;;0.10;0.10;;;;;;;19.17;82.38;99849.19;5055484;28;20056;-88
2021/08/07 10:14:45;;;;;;;0.10;0.10;;;;;;;19.64;79.78;99838.38;5045450;28;20052;-89
2021/08/07 10:17:18;;;;;;;0.10;0.10;;;;;;;19.93;79.25;99842.56;5053348;28;20508;-86
2021/08/07 10:19:54;;;;;;;0.10;0.10;;;;;;;20.14;79.28;99831.13;5050637;28;20055;-88
2021/08/07 10:22:31;;;;;;;0.10;0.10;;;;;;;20.45;78.96;99834.81;5048024;28;20607;-88
2021/08/07 10:25:08;;;;;;;0.10;0.10;;;;;;;20.41;77.73;99827.66;5046659;28;20505;-88
2021/08/07 10:27:46;;;;;;;0.10;0.10;;;;;;;20.20;78.45;99820.56;5050518;28;20588;-88
2021/08/07 10:30:15;;;;;;;0.10;0.10;;;;;;;20.24;80.50;99826.16;5052651;28;20044;-88
2021/08/07 10:32:51;;;;;;;0.20;0.20;;;;;;;20.01;77.88;99824.97;5048924;28;20053;-88
2021/08/07 10:35:29;;;;;;;0.10;0.10;;;;;;;20.27;78.77;99819.91;5055772;28;20057;-88
2021/08/07 10:38:03;;;;;;;0.10;0.10;;;;;;;19.94;80.17;99819.31;5051192;28;20053;-88
2021/08/07 10:40:47;;;;;;;0.20;0.20;;;;;;;19.15;80.43;99793.56;5048621;28;20044;-88
2021/08/07 10:43:17;;;;;;;0.10;0.10;;;;;;;19.12;82.64;99790.75;5052266;28;20063;-87
2021/08/07 10:45:46;;;;;;;0.10;0.10;;;;;;;19.31;81.81;99818.38;5050440;28;20044;-87
2021/08/07 10:48:41;;;;;;;0.10;0.10;;;;;;;18.91;82.96;99829.66;5052628;28;20067;-87
2021/08/07 10:51:38;;;;;;;0.20;0.20;;;;;;;18.74;83.37;99828.00;5050924;28;20091;-88
2021/08/07 10:54:33;;;;;;;0.20;0.20;;;;;;;18.66;83.54;99821.53;5051526;28;20045;-88
2021/08/07 10:57:34;;;;;;;0.10;0.10;;;;;;;18.80;84.20;99807.31;5049084;28;20049;-88
2021/08/07 11:00:26;;;;;;;0.10;0.10;;;;;;;18.94;85.65;99812.41;5048760;28;20045;-88
2021/08/07 11:03:16;;;;;;;0.10;0.10;;;;;;;18.97;84.58;99806.16;5048550;28;20060;-87
2021/08/07 11:05:50;;;;;;;0.10;0.10;;;;;;;18.83;83.37;99803.84;5047854;28;20052;-87
2021/08/07 11:08:25;;;;;;;0.10;0.10;;;;;;;18.78;84.69;99813.19;5047705;28;20060;-87
2021/08/07 11:10:59;;;;;;;0.20;0.20;;;;;;;18.93;86.08;99806.06;5047846;28;20051;-88
2021/08/07 11:13:28;;;;;;;0.10;0.10;;;;;;;19.31;86.77;99796.28;5046875;28;20087;-88
2021/08/07 11:16:18;;;;;;;0.10;0.10;;;;;;;19.59;80.14;99778.75;5047346;28;20064;-88
2021/08/07 11:18:55;;;;;;;0.25;0.20;;;;;;;19.81;79.12;99785.50;5047162;28;20063;-89
2021/08/07 11:21:50;;;;;;;0.10;0.10;;;;;;;20.08;79.83;99784.81;5045547;28;20053;-88
2021/08/07 11:24:57;;;;;;;0.10;0.10;;;;;;;20.31;76.68;99782.09;5048300;28;20053;-87
2021/08/07 11:28:05;;;;;;;0.20;0.20;;;;;;;20.20;75.24;99779.94;5046340;28;20622;-88
2021/08/07 11:30:40;;;;;;;0.10;0.10;;;;;;;20.60;74.18;99768.75;5046767;28;20045;-88
2021/08/07 11:33:23;;;;;;;0.10;0.10;;;;;;;20.91;74.63;99759.41;5049367;28;20060;-89
2021/08/07 11:36:14;;;;;;;0.20;0.20;;;;;;;20.79;74.74;99774.22;5044713;28;20052;-88
2021/08/07 11:39:05;;;;;;;0.20;0.20;;;;;;;20.60;75.82;99766.00;5046051;28;20057;-88
2021/08/07 11:41:47;;;;;;;0.17;0.10;;;;;;;20.62;75.18;99758.09;5049822;28;20568;-88
2021/08/07 11:44:17;;;;;;;0.10;0.10;;;;;;;20.68;76.14;99765.75;5051539;28;20481;-88
2021/08/07 11:46:50;;;;;;;0.10;0.10;;;;;;;20.56;72.31;99763.97;5056315;28;20060;-88
2021/08/07 11:49:31;;;;;;;0.10;0.10;;;;;;;20.38;75.47;99768.38;5047479;28;20063;-88
2021/08/07 11:52:13;;;;;;;0.10;0.10;;;;;;;20.17;75.55;99782.63;5046187;28;20057;-86
2021/08/07 11:55:36;;;;;;;0.10;0.10;;;;;;;20.04;77.20;99780.03;5048905;28;20068;-89
2021/08/07 11:58:15;;;;;;;0.10;0.10;;;;;;;20.23;76.08;99781.16;5057412;28;20476;-88
2021/08/07 12:01:12;;;;;;;0.10;0.10;;;;;;;20.19;80.15;99783.88;5050363;28;20041;-88
2021/08/07 12:03:46;;;;;;;;;;;;;;;20.23;79.99;99781.16;5049993;28;20049;-88
2021/08/07 12:06:16;;;;;;;0.10;0.10;;;;;;;20.19;78.99;99764.53;5047569;28;19935;-88
2021/08/07 12:08:49;;;;;;;0.10;0.10;;;;;;;20.11;76.63;99754.53;5047567;28;20572;-89
2021/08/07 12:11:23;;;;;;;0.10;0.10;;;;;;;20.43;77.10;99754.28;5055349;28;20055;-89
2021/08/07 12:13:56;;;;;;;0.10;0.10;;;;;;;20.18;73.61;99715.19;5052804;28;20056;-88
2021/08/07 12:16:34;;;;;;;0.10;0.10;;;;;;;20.49;72.83;99718.84;5058320;28;20052;-88
2021/08/07 12:19:05;;;;;;;0.10;0.10;;;;;;;20.94;71.90;99724.66;5049405;28;20060;-89
2021/08/07 12:21:35;;;;;;;0.10;0.10;;;;;;;20.90;70.69;99730.94;5048403;28;20151;-90